Delta Virtual Airport Information Service

Porto Alegre Salgado Filho International Airport

ICAO: SBPA Country: Brazil
Latitude: -29.9944 Longitude: -51.1714
Latest Arrival : AZA2666 (SBKP-SBPA) Latest Departure : TAM3162 (2) (SBPA-SBSP)


WX CaptureLIVE
Data provided by noaa.gov | Fetched at 06:16:00

METAR : SBPA 271100Z 08005KT CAVOK 24/22 Q1011

TAF : SBPA 271100Z 08005KT CAVOK 24/22 Q1011


Runway Data for SBPA
Data provided by openaviationdata.com

Runway ID Mag Var Hdg Length Elevation Surface ILS Freq ILS Id ILS Slope
11 -14 105° 7479 ft 11 ft Asphalt 110.3 IPA 3
29 -14 285° 7479 ft 11 ft Asphalt -- -- --

Porto Alegre Salgado Filho International Airport, Brazil
Use only for reference purposes



Not for navigational purposes.